CheckWX is a tool to help pilots better visualize weather data.  It is not intended as a substitute for an official pre-flight weather briefing.

20:40:33 UTC

KBEA METAR
Beeville Municipal Airport
Beeville, Texas, USA
Current

26 mins ago

KBEA 292015Z AUTO 08011G17KT 10SM SCT070 BKN100 28/07 A3006 RMK AO2 T02780071
Observed
Mar-29 @ 20:15 UTC
Wind
  • 080° at 11 KTS
  • Gusting to 17 KTS
Visibility
10 SM
Flight Rules
VFR
Cloud Levels
  • Scattered at 7,000' AGL
  • Broken at 10,000' AGL
Temperature
28°C / 82°F
Dewpoint
C / 45°F
Humidity
26%
Altimeter
30.06" Hg
Pressure
1017.92 hPa
Previous

46 mins ago

KBEA 291955Z AUTO 10013G17KT 10SM BKN065 OVC100 27/08 A3006 RMK AO2 T02710079
Observed
Mar-29 @ 19:55 UTC
Wind
  • 100° at 13 KTS
  • Gusting to 17 KTS
Visibility
10 SM
Flight Rules
VFR
Cloud Levels
  • Broken at 6,500' AGL
  • Overcast at 10,000' AGL
Temperature
27°C / 81°F
Dewpoint
C / 46°F
Humidity
30%
Altimeter
30.06" Hg
Pressure
1017.92 hPa
Previous

1 hour ago

KBEA 291935Z AUTO 09008KT 10SM OVC065 25/07 A3008 RMK AO2 T02470073
Observed
Mar-29 @ 19:35 UTC
Wind
  • 090° at 8 KTS
Visibility
10 SM
Flight Rules
VFR
Cloud Levels
  • Overcast at 6,500' AGL
Temperature
25°C / 77°F
Dewpoint
C / 45°F
Humidity
32%
Altimeter
30.08" Hg
Pressure
1018.62 hPa